sensor_id;sensor_type;location;lat;lon;timestamp;temperature;humidity
78988;DHT22;68389;44.716;37.756;2023-04-03T00:00:40;22.05;54.52
78988;DHT22;68389;44.716;37.756;2023-04-03T00:01:41;22.05;54.47
78988;DHT22;68389;44.716;37.756;2023-04-03T00:02:42;22.04;54.49
78988;DHT22;68389;44.716;37.756;2023-04-03T00:03:44;22.04;54.80
78988;DHT22;68389;44.716;37.756;2023-04-03T00:04:45;22.02;54.49
78988;DHT22;68389;44.716;37.756;2023-04-03T00:05:46;22.04;54.49
78988;DHT22;68389;44.716;37.756;2023-04-03T00:06:47;22.04;54.47
78988;DHT22;68389;44.716;37.756;2023-04-03T00:07:48;22.04;54.43
78988;DHT22;68389;44.716;37.756;2023-04-03T00:08:50;22.05;54.36
78988;DHT22;68389;44.716;37.756;2023-04-03T00:09:52;22.04;54.41
78988;DHT22;68389;44.716;37.756;2023-04-03T00:10:53;22.05;54.46
78988;DHT22;68389;44.716;37.756;2023-04-03T00:11:54;22.05;54.47
78988;DHT22;68389;44.716;37.756;2023-04-03T00:12:55;22.06;54.42
78988;DHT22;68389;44.716;37.756;2023-04-03T00:13:56;22.05;54.52
78988;DHT22;68389;44.716;37.756;2023-04-03T00:14:57;22.05;54.49
78988;DHT22;68389;44.716;37.756;2023-04-03T00:15:59;22.06;54.39
78988;DHT22;68389;44.716;37.756;2023-04-03T00:17:00;22.06;54.34
78988;DHT22;68389;44.716;37.756;2023-04-03T00:18:02;22.06;54.35
78988;DHT22;68389;44.716;37.756;2023-04-03T00:19:03;22.05;54.39
78988;DHT22;68389;44.716;37.756;2023-04-03T00:20:05;22.07;54.40
78988;DHT22;68389;44.716;37.756;2023-04-03T00:21:07;22.06;54.39
78988;DHT22;68389;44.716;37.756;2023-04-03T00:22:09;22.06;54.44
78988;DHT22;68389;44.716;37.756;2023-04-03T00:23:10;22.06;54.36
78988;DHT22;68389;44.716;37.756;2023-04-03T00:24:11;22.05;54.42
78988;DHT22;68389;44.716;37.756;2023-04-03T00:25:12;22.08;54.31
78988;DHT22;68389;44.716;37.756;2023-04-03T00:26:13;22.07;54.36
78988;DHT22;68389;44.716;37.756;2023-04-03T00:27:15;22.07;54.44
78988;DHT22;68389;44.716;37.756;2023-04-03T00:28:16;22.05;54.33
78988;DHT22;68389;44.716;37.756;2023-04-03T00:29:17;22.06;54.33
78988;DHT22;68389;44.716;37.756;2023-04-03T00:30:20;22.06;54.37
78988;DHT22;68389;44.716;37.756;2023-04-03T00:31:21;22.06;54.58
78988;DHT22;68389;44.716;37.756;2023-04-03T00:32:23;22.04;54.41
78988;DHT22;68389;44.716;37.756;2023-04-03T00:33:24;22.05;54.36
78988;DHT22;68389;44.716;37.756;2023-04-03T00:34:25;22.06;54.31
78988;DHT22;68389;44.716;37.756;2023-04-03T00:35:26;22.08;54.37
78988;DHT22;68389;44.716;37.756;2023-04-03T00:36:28;22.08;54.26
78988;DHT22;68389;44.716;37.756;2023-04-03T00:37:29;22.10;54.21
78988;DHT22;68389;44.716;37.756;2023-04-03T00:38:31;22.08;54.26
78988;DHT22;68389;44.716;37.756;2023-04-03T00:39:32;22.09;54.33
78988;DHT22;68389;44.716;37.756;2023-04-03T00:40:43;22.09;54.33
78988;DHT22;68389;44.716;37.756;2023-04-03T00:41:44;22.08;54.26
78988;DHT22;68389;44.716;37.756;2023-04-03T00:42:46;22.06;54.33
78988;DHT22;68389;44.716;37.756;2023-04-03T00:43:49;22.06;54.39
78988;DHT22;68389;44.716;37.756;2023-04-03T00:45:58;22.08;54.28
78988;DHT22;68389;44.716;37.756;2023-04-03T00:47:00;22.06;54.23
78988;DHT22;68389;44.716;37.756;2023-04-03T00:48:04;22.08;54.28
78988;DHT22;68389;44.716;37.756;2023-04-03T00:49:07;22.08;54.27
78988;DHT22;68389;44.716;37.756;2023-04-03T00:50:08;22.07;54.33
78988;DHT22;68389;44.716;37.756;2023-04-03T00:51:13;22.08;54.23
78988;DHT22;68389;44.716;37.756;2023-04-03T00:52:18;22.08;54.32
78988;DHT22;68389;44.716;37.756;2023-04-03T00:53:25;22.08;54.30
78988;DHT22;68389;44.716;37.756;2023-04-03T00:54:26;22.07;54.23
78988;DHT22;68389;44.716;37.756;2023-04-03T00:55:27;22.09;54.31
78988;DHT22;68389;44.716;37.756;2023-04-03T00:56:29;22.09;54.29
78988;DHT22;68389;44.716;37.756;2023-04-03T00:57:31;22.07;54.20
78988;DHT22;68389;44.716;37.756;2023-04-03T00:58:37;22.07;54.26
78988;DHT22;68389;44.716;37.756;2023-04-03T00:59:43;22.08;54.27
78988;DHT22;68389;44.716;37.756;2023-04-03T01:00:50;22.09;54.25
78988;DHT22;68389;44.716;37.756;2023-04-03T01:01:56;22.09;54.30
78988;DHT22;68389;44.716;37.756;2023-04-03T01:02:57;22.08;54.27
78988;DHT22;68389;44.716;37.756;2023-04-03T01:04:00;22.08;54.25
78988;DHT22;68389;44.716;37.756;2023-04-03T01:05:01;22.08;54.22
78988;DHT22;68389;44.716;37.756;2023-04-03T01:06:03;22.07;54.23
78988;DHT22;68389;44.716;37.756;2023-04-03T01:07:08;22.08;54.26
78988;DHT22;68389;44.716;37.756;2023-04-03T01:08:10;22.07;54.30
78988;DHT22;68389;44.716;37.756;2023-04-03T01:09:11;22.08;54.17
78988;DHT22;68389;44.716;37.756;2023-04-03T01:10:15;22.08;54.23
78988;DHT22;68389;44.716;37.756;2023-04-03T01:11:17;22.09;54.14
78988;DHT22;68389;44.716;37.756;2023-04-03T01:13:26;22.09;54.25
78988;DHT22;68389;44.716;37.756;2023-04-03T01:14:28;22.08;54.10
78988;DHT22;68389;44.716;37.756;2023-04-03T01:15:29;22.10;54.21
78988;DHT22;68389;44.716;37.756;2023-04-03T01:16:35;22.10;54.19
78988;DHT22;68389;44.716;37.756;2023-04-03T01:17:45;22.10;54.10
78988;DHT22;68389;44.716;37.756;2023-04-03T01:18:46;22.09;54.19
78988;DHT22;68389;44.716;37.756;2023-04-03T01:22:35;22.09;54.09
78988;DHT22;68389;44.716;37.756;2023-04-03T01:23:57;22.09;54.12
78988;DHT22;68389;44.716;37.756;2023-04-03T01:25:00;22.08;54.23
78988;DHT22;68389;44.716;37.756;2023-04-03T01:26:02;22.08;54.30
78988;DHT22;68389;44.716;37.756;2023-04-03T01:27:05;22.07;54.10
78988;DHT22;68389;44.716;37.756;2023-04-03T01:28:10;22.07;54.23
78988;DHT22;68389;44.716;37.756;2023-04-03T01:29:12;22.07;54.07
78988;DHT22;68389;44.716;37.756;2023-04-03T01:30:14;22.06;54.58
78988;DHT22;68389;44.716;37.756;2023-04-03T01:32:42;21.98;54.62
78988;DHT22;68389;44.716;37.756;2023-04-03T01:33:44;21.94;54.72
78988;DHT22;68389;44.716;37.756;2023-04-03T01:34:45;21.89;55.25
78988;DHT22;68389;44.716;37.756;2023-04-03T01:35:46;21.84;54.37
78988;DHT22;68389;44.716;37.756;2023-04-03T01:36:47;21.81;56.25
78988;DHT22;68389;44.716;37.756;2023-04-03T01:37:48;21.77;55.42
78988;DHT22;68389;44.716;37.756;2023-04-03T01:38:50;21.76;55.41
78988;DHT22;68389;44.716;37.756;2023-04-03T01:39:51;21.72;56.42
78988;DHT22;68389;44.716;37.756;2023-04-03T01:40:52;21.69;56.15
78988;DHT22;68389;44.716;37.756;2023-04-03T01:41:53;21.66;56.96
78988;DHT22;68389;44.716;37.756;2023-04-03T01:42:55;21.63;57.06
78988;DHT22;68389;44.716;37.756;2023-04-03T01:43:56;21.61;55.78
78988;DHT22;68389;44.716;37.756;2023-04-03T01:44:57;21.61;55.84
78988;DHT22;68389;44.716;37.756;2023-04-03T01:45:58;21.59;56.36
78988;DHT22;68389;44.716;37.756;2023-04-03T01:46:59;21.58;56.24
78988;DHT22;68389;44.716;37.756;2023-04-03T01:48:00;21.55;55.30
78988;DHT22;68389;44.716;37.756;2023-04-03T01:49:01;21.53;56.42
78988;DHT22;68389;44.716;37.756;2023-04-03T01:50:03;21.54;56.79
78988;DHT22;68389;44.716;37.756;2023-04-03T01:51:04;21.53;57.42
78988;DHT22;68389;44.716;37.756;2023-04-03T01:52:05;21.51;56.71
78988;DHT22;68389;44.716;37.756;2023-04-03T01:53:07;21.51;56.20
78988;DHT22;68389;44.716;37.756;2023-04-03T01:54:08;21.51;56.10
78988;DHT22;68389;44.716;37.756;2023-04-03T01:55:09;21.49;56.63
78988;DHT22;68389;44.716;37.756;2023-04-03T01:56:10;21.48;56.20
78988;DHT22;68389;44.716;37.756;2023-04-03T01:57:11;21.49;56.18
78988;DHT22;68389;44.716;37.756;2023-04-03T01:58:14;21.49;55.33
78988;DHT22;68389;44.716;37.756;2023-04-03T01:59:15;21.49;56.42
78988;DHT22;68389;44.716;37.756;2023-04-03T02:00:18;21.48;56.87
78988;DHT22;68389;44.716;37.756;2023-04-03T02:01:19;21.49;56.22
78988;DHT22;68389;44.716;37.756;2023-04-03T02:02:21;21.47;56.11
78988;DHT22;68389;44.716;37.756;2023-04-03T02:03:23;21.48;56.40
78988;DHT22;68389;44.716;37.756;2023-04-03T02:04:24;21.47;56.77
78988;DHT22;68389;44.716;37.756;2023-04-03T02:05:25;21.48;56.45
78988;DHT22;68389;44.716;37.756;2023-04-03T02:06:26;21.47;55.83
78988;DHT22;68389;44.716;37.756;2023-04-03T02:07:28;21.47;55.81
78988;DHT22;68389;44.716;37.756;2023-04-03T02:08:29;21.48;56.87
78988;DHT22;68389;44.716;37.756;2023-04-03T02:09:30;21.47;56.56
78988;DHT22;68389;44.716;37.756;2023-04-03T02:10:31;21.46;56.45
78988;DHT22;68389;44.716;37.756;2023-04-03T02:11:32;21.47;56.39
78988;DHT22;68389;44.716;37.756;2023-04-03T02:12:33;21.45;56.59
78988;DHT22;68389;44.716;37.756;2023-04-03T02:13:34;21.46;56.44
78988;DHT22;68389;44.716;37.756;2023-04-03T02:14:36;21.44;56.39
78988;DHT22;68389;44.716;37.756;2023-04-03T02:15:38;21.44;55.94
78988;DHT22;68389;44.716;37.756;2023-04-03T02:16:40;21.45;56.75
78988;DHT22;68389;44.716;37.756;2023-04-03T02:17:41;21.44;56.44
78988;DHT22;68389;44.716;37.756;2023-04-03T02:18:42;21.45;55.92
78988;DHT22;68389;44.716;37.756;2023-04-03T02:19:43;21.43;55.78
78988;DHT22;68389;44.716;37.756;2023-04-03T02:20:46;21.45;56.87
78988;DHT22;68389;44.716;37.756;2023-04-03T02:21:48;21.43;55.95
78988;DHT22;68389;44.716;37.756;2023-04-03T02:22:49;21.44;56.27
78988;DHT22;68389;44.716;37.756;2023-04-03T02:23:50;21.43;57.01
78988;DHT22;68389;44.716;37.756;2023-04-03T02:24:51;21.42;56.20
78988;DHT22;68389;44.716;37.756;2023-04-03T02:25:52;21.42;55.72
78988;DHT22;68389;44.716;37.756;2023-04-03T02:26:53;21.42;56.50
78988;DHT22;68389;44.716;37.756;2023-04-03T02:27:55;21.42;56.55
78988;DHT22;68389;44.716;37.756;2023-04-03T02:28:56;21.42;55.81
78988;DHT22;68389;44.716;37.756;2023-04-03T02:29:57;21.40;56.26
78988;DHT22;68389;44.716;37.756;2023-04-03T02:30:58;21.40;56.75
78988;DHT22;68389;44.716;37.756;2023-04-03T02:31:59;21.40;56.43
78988;DHT22;68389;44.716;37.756;2023-04-03T02:33:00;21.42;56.06
78988;DHT22;68389;44.716;37.756;2023-04-03T02:34:01;21.42;56.39
78988;DHT22;68389;44.716;37.756;2023-04-03T02:35:03;21.40;56.16
78988;DHT22;68389;44.716;37.756;2023-04-03T02:36:05;21.39;56.46
78988;DHT22;68389;44.716;37.756;2023-04-03T02:37:07;21.40;55.94
78988;DHT22;68389;44.716;37.756;2023-04-03T02:38:08;21.40;55.95
78988;DHT22;68389;44.716;37.756;2023-04-03T02:39:09;21.40;56.99
78988;DHT22;68389;44.716;37.756;2023-04-03T02:40:10;21.40;56.25
78988;DHT22;68389;44.716;37.756;2023-04-03T02:41:12;21.40;56.16
78988;DHT22;68389;44.716;37.756;2023-04-03T02:42:14;21.40;55.94
78988;DHT22;68389;44.716;37.756;2023-04-03T02:43:15;21.42;55.78
78988;DHT22;68389;44.716;37.756;2023-04-03T02:44:16;21.40;56.24
78988;DHT22;68389;44.716;37.756;2023-04-03T02:45:17;21.40;56.66
78988;DHT22;68389;44.716;37.756;2023-04-03T02:46:18;21.42;55.58
78988;DHT22;68389;44.716;37.756;2023-04-03T02:47:19;21.40;55.95
78988;DHT22;68389;44.716;37.756;2023-04-03T02:48:21;21.40;56.19
78988;DHT22;68389;44.716;37.756;2023-04-03T02:49:22;21.42;56.22
78988;DHT22;68389;44.716;37.756;2023-04-03T02:50:23;21.38;56.19
78988;DHT22;68389;44.716;37.756;2023-04-03T02:51:24;21.40;56.80
78988;DHT22;68389;44.716;37.756;2023-04-03T02:52:25;21.39;56.33
78988;DHT22;68389;44.716;37.756;2023-04-03T02:53:26;21.39;56.07
78988;DHT22;68389;44.716;37.756;2023-04-03T02:54:27;21.39;56.24
78988;DHT22;68389;44.716;37.756;2023-04-03T02:55:31;21.40;56.27
78988;DHT22;68389;44.716;37.756;2023-04-03T02:56:32;21.39;56.23
78988;DHT22;68389;44.716;37.756;2023-04-03T02:57:33;21.40;56.08
78988;DHT22;68389;44.716;37.756;2023-04-03T02:58:34;21.40;55.95
78988;DHT22;68389;44.716;37.756;2023-04-03T02:59:36;21.40;56.25
78988;DHT22;68389;44.716;37.756;2023-04-03T03:00:38;21.39;56.42
78988;DHT22;68389;44.716;37.756;2023-04-03T03:01:40;21.42;56.52
78988;DHT22;68389;44.716;37.756;2023-04-03T03:02:41;21.42;56.62
78988;DHT22;68389;44.716;37.756;2023-04-03T03:03:42;21.42;56.15
78988;DHT22;68389;44.716;37.756;2023-04-03T03:04:43;21.39;56.24
78988;DHT22;68389;44.716;37.756;2023-04-03T03:05:44;21.40;56.04
78988;DHT22;68389;44.716;37.756;2023-04-03T03:06:45;21.40;56.00
78988;DHT22;68389;44.716;37.756;2023-04-03T03:07:47;21.39;56.04
78988;DHT22;68389;44.716;37.756;2023-04-03T03:08:48;21.40;55.75
78988;DHT22;68389;44.716;37.756;2023-04-03T03:09:49;21.40;56.57
78988;DHT22;68389;44.716;37.756;2023-04-03T03:10:50;21.39;56.52
78988;DHT22;68389;44.716;37.756;2023-04-03T03:11:52;21.39;56.11
78988;DHT22;68389;44.716;37.756;2023-04-03T03:12:53;21.39;56.15
78988;DHT22;68389;44.716;37.756;2023-04-03T03:13:54;21.38;56.24
78988;DHT22;68389;44.716;37.756;2023-04-03T03:14:55;21.37;56.16
78988;DHT22;68389;44.716;37.756;2023-04-03T03:15:57;21.37;56.39
78988;DHT22;68389;44.716;37.756;2023-04-03T03:16:58;21.37;56.05
78988;DHT22;68389;44.716;37.756;2023-04-03T03:17:59;21.37;56.38
78988;DHT22;68389;44.716;37.756;2023-04-03T03:19:00;21.37;56.10
78988;DHT22;68389;44.716;37.756;2023-04-03T03:20:02;21.38;55.50
78988;DHT22;68389;44.716;37.756;2023-04-03T03:21:04;21.38;56.34
78988;DHT22;68389;44.716;37.756;2023-04-03T03:22:05;21.37;56.04
78988;DHT22;68389;44.716;37.756;2023-04-03T03:23:06;21.38;55.84
78988;DHT22;68389;44.716;37.756;2023-04-03T03:24:08;21.37;55.86
78988;DHT22;68389;44.716;37.756;2023-04-03T03:25:09;21.37;55.89
78988;DHT22;68389;44.716;37.756;2023-04-03T03:26:11;21.36;55.89
78988;DHT22;68389;44.716;37.756;2023-04-03T03:27:12;21.35;56.20
78988;DHT22;68389;44.716;37.756;2023-04-03T03:28:13;21.34;56.07
78988;DHT22;68389;44.716;37.756;2023-04-03T03:29:14;21.34;56.46
78988;DHT22;68389;44.716;37.756;2023-04-03T03:30:15;21.34;55.86
78988;DHT22;68389;44.716;37.756;2023-04-03T03:31:16;21.34;56.69
78988;DHT22;68389;44.716;37.756;2023-04-03T03:32:17;21.32;56.72
78988;DHT22;68389;44.716;37.756;2023-04-03T03:33:19;21.31;56.97
78988;DHT22;68389;44.716;37.756;2023-04-03T03:34:20;21.30;56.55
78988;DHT22;68389;44.716;37.756;2023-04-03T03:35:22;21.31;56.71
78988;DHT22;68389;44.716;37.756;2023-04-03T03:36:23;21.30;56.62
78988;DHT22;68389;44.716;37.756;2023-04-03T03:37:24;21.29;56.40
78988;DHT22;68389;44.716;37.756;2023-04-03T03:38:25;21.29;56.52
78988;DHT22;68389;44.716;37.756;2023-04-03T03:39:26;21.29;56.54
78988;DHT22;68389;44.716;37.756;2023-04-03T03:40:27;21.29;56.36
78988;DHT22;68389;44.716;37.756;2023-04-03T03:41:28;21.29;56.43
78988;DHT22;68389;44.716;37.756;2023-04-03T03:42:29;21.28;56.74
78988;DHT22;68389;44.716;37.756;2023-04-03T03:43:30;21.29;56.04
78988;DHT22;68389;44.716;37.756;2023-04-03T03:44:32;21.29;56.10
78988;DHT22;68389;44.716;37.756;2023-04-03T03:45:33;21.30;55.77
78988;DHT22;68389;44.716;37.756;2023-04-03T03:46:34;21.30;55.70
78988;DHT22;68389;44.716;37.756;2023-04-03T03:47:35;21.29;55.74
78988;DHT22;68389;44.716;37.756;2023-04-03T03:48:36;21.29;55.89
78988;DHT22;68389;44.716;37.756;2023-04-03T03:49:37;21.29;55.55
78988;DHT22;68389;44.716;37.756;2023-04-03T03:50:39;21.30;55.65
78988;DHT22;68389;44.716;37.756;2023-04-03T03:51:40;21.31;56.03
78988;DHT22;68389;44.716;37.756;2023-04-03T03:52:41;21.30;55.32
78988;DHT22;68389;44.716;37.756;2023-04-03T03:53:42;21.30;55.54
78988;DHT22;68389;44.716;37.756;2023-04-03T03:54:43;21.30;55.68
78988;DHT22;68389;44.716;37.756;2023-04-03T03:55:44;21.29;55.76
78988;DHT22;68389;44.716;37.756;2023-04-03T03:56:45;21.30;55.27
78988;DHT22;68389;44.716;37.756;2023-04-03T03:57:46;21.30;55.28
78988;DHT22;68389;44.716;37.756;2023-04-03T03:58:47;21.31;55.45
78988;DHT22;68389;44.716;37.756;2023-04-03T03:59:50;21.31;55.39
78988;DHT22;68389;44.716;37.756;2023-04-03T04:00:52;21.35;57.24
78988;DHT22;68389;44.716;37.756;2023-04-03T04:01:53;21.38;55.47
78988;DHT22;68389;44.716;37.756;2023-04-03T04:02:54;21.39;55.77
78988;DHT22;68389;44.716;37.756;2023-04-03T04:03:56;21.42;55.53
78988;DHT22;68389;44.716;37.756;2023-04-03T04:04:57;21.43;55.45
78988;DHT22;68389;44.716;37.756;2023-04-03T04:05:58;21.45;55.27
78988;DHT22;68389;44.716;37.756;2023-04-03T04:07:00;21.45;55.13
78988;DHT22;68389;44.716;37.756;2023-04-03T04:08:01;21.45;55.33
78988;DHT22;68389;44.716;37.756;2023-04-03T04:09:02;21.46;54.96
78988;DHT22;68389;44.716;37.756;2023-04-03T04:10:04;21.47;54.90
78988;DHT22;68389;44.716;37.756;2023-04-03T04:11:05;21.46;55.16
78988;DHT22;68389;44.716;37.756;2023-04-03T04:12:06;21.47;54.65
78988;DHT22;68389;44.716;37.756;2023-04-03T04:13:08;21.44;55.20
78988;DHT22;68389;44.716;37.756;2023-04-03T04:14:09;21.42;55.18
78988;DHT22;68389;44.716;37.756;2023-04-03T04:15:11;21.42;55.00
78988;DHT22;68389;44.716;37.756;2023-04-03T04:16:12;21.42;55.00
78988;DHT22;68389;44.716;37.756;2023-04-03T04:17:13;21.45;55.11
78988;DHT22;68389;44.716;37.756;2023-04-03T04:18:15;21.45;54.86
78988;DHT22;68389;44.716;37.756;2023-04-03T04:19:16;21.47;54.68
78988;DHT22;68389;44.716;37.756;2023-04-03T04:20:17;21.48;54.75
78988;DHT22;68389;44.716;37.756;2023-04-03T04:21:18;21.51;55.18
78988;DHT22;68389;44.716;37.756;2023-04-03T04:22:20;21.53;54.77
78988;DHT22;68389;44.716;37.756;2023-04-03T04:23:21;21.52;54.55
78988;DHT22;68389;44.716;37.756;2023-04-03T04:24:22;21.50;54.59
78988;DHT22;68389;44.716;37.756;2023-04-03T04:25:26;21.51;54.62
78988;DHT22;68389;44.716;37.756;2023-04-03T04:26:27;21.50;54.78
78988;DHT22;68389;44.716;37.756;2023-04-03T04:27:28;21.50;54.87
78988;DHT22;68389;44.716;37.756;2023-04-03T04:28:29;21.53;54.66
78988;DHT22;68389;44.716;37.756;2023-04-03T04:29:31;21.54;55.33
78988;DHT22;68389;44.716;37.756;2023-04-03T04:30:36;21.57;55.03
78988;DHT22;68389;44.716;37.756;2023-04-03T04:31:37;21.59;54.84
78988;DHT22;68389;44.716;37.756;2023-04-03T04:32:38;21.62;55.00
78988;DHT22;68389;44.716;37.756;2023-04-03T04:33:39;21.63;54.60
78988;DHT22;68389;44.716;37.756;2023-04-03T04:34:40;21.64;54.93
78988;DHT22;68389;44.716;37.756;2023-04-03T04:35:42;21.64;54.58
78988;DHT22;68389;44.716;37.756;2023-04-03T04:36:44;21.63;55.93
78988;DHT22;68389;44.716;37.756;2023-04-03T04:37:45;21.64;55.33
78988;DHT22;68389;44.716;37.756;2023-04-03T04:38:46;21.65;55.11
78988;DHT22;68389;44.716;37.756;2023-04-03T04:39:47;21.67;55.08
78988;DHT22;68389;44.716;37.756;2023-04-03T04:40:48;21.68;55.07
78988;DHT22;68389;44.716;37.756;2023-04-03T04:41:49;21.70;54.95
78988;DHT22;68389;44.716;37.756;2023-04-03T04:42:51;21.73;54.91
78988;DHT22;68389;44.716;37.756;2023-04-03T04:43:52;21.74;54.83
78988;DHT22;68389;44.716;37.756;2023-04-03T04:44:54;21.74;54.87
78988;DHT22;68389;44.716;37.756;2023-04-03T04:46:21;21.76;54.80
78988;DHT22;68389;44.716;37.756;2023-04-03T04:47:22;21.78;54.68
78988;DHT22;68389;44.716;37.756;2023-04-03T04:48:23;21.79;54.60
78988;DHT22;68389;44.716;37.756;2023-04-03T04:49:24;21.80;54.61
78988;DHT22;68389;44.716;37.756;2023-04-03T04:50:25;21.81;54.46
78988;DHT22;68389;44.716;37.756;2023-04-03T04:51:26;21.81;54.48
78988;DHT22;68389;44.716;37.756;2023-04-03T04:52:27;21.82;54.50
78988;DHT22;68389;44.716;37.756;2023-04-03T04:53:28;21.82;54.51
78988;DHT22;68389;44.716;37.756;2023-04-03T04:54:29;21.83;54.41
78988;DHT22;68389;44.716;37.756;2023-04-03T04:55:31;21.84;54.37
78988;DHT22;68389;44.716;37.756;2023-04-03T04:56:32;21.85;54.35
78988;DHT22;68389;44.716;37.756;2023-04-03T04:57:33;21.87;54.30
78988;DHT22;68389;44.716;37.756;2023-04-03T04:58:35;21.88;54.26
78988;DHT22;68389;44.716;37.756;2023-04-03T04:59:36;21.88;54.24
78988;DHT22;68389;44.716;37.756;2023-04-03T05:00:37;21.89;54.22
78988;DHT22;68389;44.716;37.756;2023-04-03T05:01:38;21.89;54.28
78988;DHT22;68389;44.716;37.756;2023-04-03T05:02:40;21.90;54.21
78988;DHT22;68389;44.716;37.756;2023-04-03T05:03:41;21.89;54.17
78988;DHT22;68389;44.716;37.756;2023-04-03T05:04:42;21.90;54.16
78988;DHT22;68389;44.716;37.756;2023-04-03T05:05:43;21.90;54.25
78988;DHT22;68389;44.716;37.756;2023-04-03T05:06:44;21.88;54.17
78988;DHT22;68389;44.716;37.756;2023-04-03T05:07:45;21.87;54.13
78988;DHT22;68389;44.716;37.756;2023-04-03T05:08:46;21.89;54.13
78988;DHT22;68389;44.716;37.756;2023-04-03T05:09:47;21.88;54.15
78988;DHT22;68389;44.716;37.756;2023-04-03T05:10:49;21.89;54.14
78988;DHT22;68389;44.716;37.756;2023-04-03T05:11:50;21.88;54.20
78988;DHT22;68389;44.716;37.756;2023-04-03T05:12:51;21.88;54.15
78988;DHT22;68389;44.716;37.756;2023-04-03T05:13:52;21.88;54.10
78988;DHT22;68389;44.716;37.756;2023-04-03T05:14:53;21.88;54.07
78988;DHT22;68389;44.716;37.756;2023-04-03T05:15:55;21.89;54.10
78988;DHT22;68389;44.716;37.756;2023-04-03T05:16:56;21.90;54.07
78988;DHT22;68389;44.716;37.756;2023-04-03T05:17:59;21.89;54.10
78988;DHT22;68389;44.716;37.756;2023-04-03T05:19:00;21.89;54.03
78988;DHT22;68389;44.716;37.756;2023-04-03T05:20:02;21.89;54.07
78988;DHT22;68389;44.716;37.756;2023-04-03T05:21:04;21.90;54.04
78988;DHT22;68389;44.716;37.756;2023-04-03T05:22:05;21.91;54.01
78988;DHT22;68389;44.716;37.756;2023-04-03T05:23:07;21.91;54.11
78988;DHT22;68389;44.716;37.756;2023-04-03T05:24:08;21.90;54.01
78988;DHT22;68389;44.716;37.756;2023-04-03T05:25:10;21.91;53.99
78988;DHT22;68389;44.716;37.756;2023-04-03T05:26:11;21.91;53.94
78988;DHT22;68389;44.716;37.756;2023-04-03T05:27:12;21.91;54.05
78988;DHT22;68389;44.716;37.756;2023-04-03T05:28:13;21.91;54.00
78988;DHT22;68389;44.716;37.756;2023-04-03T05:29:14;21.91;53.97
78988;DHT22;68389;44.716;37.756;2023-04-03T05:30:16;21.91;53.98
78988;DHT22;68389;44.716;37.756;2023-04-03T05:31:17;21.91;54.04
78988;DHT22;68389;44.716;37.756;2023-04-03T05:32:18;21.91;53.89
78988;DHT22;68389;44.716;37.756;2023-04-03T05:33:20;21.90;53.94
78988;DHT22;68389;44.716;37.756;2023-04-03T05:34:21;21.90;53.99
78988;DHT22;68389;44.716;37.756;2023-04-03T05:35:26;21.90;54.00
78988;DHT22;68389;44.716;37.756;2023-04-03T05:36:28;21.88;54.01
78988;DHT22;68389;44.716;37.756;2023-04-03T05:37:29;21.89;54.02
78988;DHT22;68389;44.716;37.756;2023-04-03T05:38:30;21.89;53.97
78988;DHT22;68389;44.716;37.756;2023-04-03T05:39:31;21.90;53.98
78988;DHT22;68389;44.716;37.756;2023-04-03T05:40:32;21.89;53.99
78988;DHT22;68389;44.716;37.756;2023-04-03T05:41:33;21.89;53.94
78988;DHT22;68389;44.716;37.756;2023-04-03T05:42:35;21.88;53.97
78988;DHT22;68389;44.716;37.756;2023-04-03T05:43:36;21.89;53.97
78988;DHT22;68389;44.716;37.756;2023-04-03T05:44:39;21.89;53.97
78988;DHT22;68389;44.716;37.756;2023-04-03T05:45:42;21.89;53.98
78988;DHT22;68389;44.716;37.756;2023-04-03T05:46:43;21.89;54.05
78988;DHT22;68389;44.716;37.756;2023-04-03T05:47:44;21.89;53.96
78988;DHT22;68389;44.716;37.756;2023-04-03T05:48:46;21.89;53.99
78988;DHT22;68389;44.716;37.756;2023-04-03T05:49:47;21.90;53.99
78988;DHT22;68389;44.716;37.756;2023-04-03T05:50:49;21.90;53.93
78988;DHT22;68389;44.716;37.756;2023-04-03T05:51:50;21.90;53.94
78988;DHT22;68389;44.716;37.756;2023-04-03T05:52:55;21.91;53.93
78988;DHT22;68389;44.716;37.756;2023-04-03T05:54:18;21.90;53.95
78988;DHT22;68389;44.716;37.756;2023-04-03T05:55:20;21.91;53.91
78988;DHT22;68389;44.716;37.756;2023-04-03T05:56:21;21.91;53.89
78988;DHT22;68389;44.716;37.756;2023-04-03T05:57:22;21.91;53.93
78988;DHT22;68389;44.716;37.756;2023-04-03T05:58:24;21.90;53.96
78988;DHT22;68389;44.716;37.756;2023-04-03T05:59:25;21.87;54.00
78988;DHT22;68389;44.716;37.756;2023-04-03T06:00:26;21.89;53.98
78988;DHT22;68389;44.716;37.756;2023-04-03T06:01:28;21.87;54.04
78988;DHT22;68389;44.716;37.756;2023-04-03T06:02:29;21.87;54.01
78988;DHT22;68389;44.716;37.756;2023-04-03T06:03:32;21.88;54.03
78988;DHT22;68389;44.716;37.756;2023-04-03T06:04:33;21.85;54.04
78988;DHT22;68389;44.716;37.756;2023-04-03T06:05:34;21.85;54.05
78988;DHT22;68389;44.716;37.756;2023-04-03T06:06:48;21.87;54.10
78988;DHT22;68389;44.716;37.756;2023-04-03T06:07:50;21.85;54.04
78988;DHT22;68389;44.716;37.756;2023-04-03T06:08:51;21.87;54.05
78988;DHT22;68389;44.716;37.756;2023-04-03T06:09:53;21.85;54.03
78988;DHT22;68389;44.716;37.756;2023-04-03T06:10:54;21.85;54.06
78988;DHT22;68389;44.716;37.756;2023-04-03T06:11:57;21.87;54.05
78988;DHT22;68389;44.716;37.756;2023-04-03T06:12:59;21.85;54.08
78988;DHT22;68389;44.716;37.756;2023-04-03T06:14:00;21.87;54.06
78988;DHT22;68389;44.716;37.756;2023-04-03T06:15:02;21.87;54.05
78988;DHT22;68389;44.716;37.756;2023-04-03T06:16:03;21.85;54.04
78988;DHT22;68389;44.716;37.756;2023-04-03T06:17:05;21.87;54.06
78988;DHT22;68389;44.716;37.756;2023-04-03T06:18:06;21.87;54.10
78988;DHT22;68389;44.716;37.756;2023-04-03T06:19:08;21.88;54.01
78988;DHT22;68389;44.716;37.756;2023-04-03T06:20:10;21.88;54.04
78988;DHT22;68389;44.716;37.756;2023-04-03T06:21:11;21.88;53.92
78988;DHT22;68389;44.716;37.756;2023-04-03T06:22:13;21.89;53.96
78988;DHT22;68389;44.716;37.756;2023-04-03T06:23:14;21.89;53.94
78988;DHT22;68389;44.716;37.756;2023-04-03T06:24:16;21.90;53.94
78988;DHT22;68389;44.716;37.756;2023-04-03T06:25:17;21.90;53.93
78988;DHT22;68389;44.716;37.756;2023-04-03T06:26:19;21.90;53.94
78988;DHT22;68389;44.716;37.756;2023-04-03T06:27:21;21.90;53.94
78988;DHT22;68389;44.716;37.756;2023-04-03T06:28:22;21.91;53.95
78988;DHT22;68389;44.716;37.756;2023-04-03T06:29:24;21.90;53.93
78988;DHT22;68389;44.716;37.756;2023-04-03T06:30:25;21.91;53.91